Time;durP1;ratioP1;P1;durP2;ratioP2;P2;SDS_P1;SDS_P2;PMS_P1;PMS_P2;Temp;Humidity;BMP_temperature;BMP_pressure;BME280_temperature;BME280_humidity;BME280_pressure;Samples;Min_cycle;Max_cycle;Signal;HPM_P1;HPM_P2
2024/02/12 17:48:52;;;;;;;;;1.00;1.00;;;;;20.45;42.58;101113.63;6236508;22;2158873;-75
2024/02/12 17:51:20;;;;;;;;;1.33;0.00;;;;;20.51;42.35;101115.59;6402658;22;45432;-79
2024/02/12 17:53:46;;;;;;;;;3.00;1.33;;;;;20.42;42.87;101100.72;6406930;22;45413;-78
2024/02/12 17:56:12;;;;;;;;;1.00;0.00;;;;;20.61;42.98;101121.56;6406777;22;45389;-78
2024/02/12 17:58:38;;;;;;;;;1.00;1.00;;;;;20.67;43.07;101119.25;6408718;22;45347;-87
2024/02/12 18:01:03;;;;;;;;;2.00;0.00;;;;;20.73;43.28;101122.09;6406724;22;45290;-82
2024/02/12 18:03:28;;;;;;;;;0.67;0.67;;;;;20.88;43.60;101137.28;6408041;22;45288;-77
2024/02/12 18:05:54;;;;;;;;;1.33;0.00;;;;;20.76;43.60;101109.53;6406823;22;53596;-79
2024/02/12 18:08:19;;;;;;;;;2.33;0.00;;;;;20.92;44.07;101127.22;6407064;22;58504;-83
2024/02/12 18:10:44;;;;;;;;;0.67;0.33;;;;;21.00;44.15;101129.81;6408277;22;45120;-87
2024/02/12 18:13:10;;;;;;;;;0.67;0.00;;;;;21.09;43.77;101138.63;6408434;22;45520;-89
2024/02/12 18:15:37;;;;;;;;;1.67;1.00;;;;;21.12;44.00;101130.38;6407369;22;45214;-81
2024/02/12 18:18:04;;;;;;;;;0.67;0.67;;;;;21.19;43.94;101143.75;6407531;22;46273;-75
2024/02/12 18:20:29;;;;;;;;;0.67;0.67;;;;;21.24;44.22;101159.13;6406897;22;45402;-77
2024/02/12 18:22:54;;;;;;;;;2.67;0.00;;;;;21.21;43.92;101147.03;6407572;22;45234;-76
2024/02/12 18:25:19;;;;;;;;;0.33;0.33;;;;;21.13;44.70;101144.44;6408029;22;45274;-80
2024/02/12 18:27:45;;;;;;;;;2.67;0.67;;;;;21.23;44.40;101162.78;6404489;22;45302;-79
2024/02/12 18:30:11;;;;;;;;;0.67;0.67;;;;;21.38;44.11;101192.03;6400430;22;45285;-79
2024/02/12 18:32:38;;;;;;;;;0.67;0.33;;;;;21.06;44.75;101133.66;6400937;22;45260;-78
2024/02/12 18:35:05;;;;;;;;;0.00;0.00;;;;;21.45;44.55;101192.16;6371555;22;45441;-76
2024/02/12 18:37:33;;;;;;;;;4.67;0.67;;;;;21.38;44.71;101176.16;6400127;22;46562;-75
2024/02/12 18:39:59;;;;;;;;;2.00;1.00;;;;;21.45;45.27;101186.88;6400410;22;45263;-78
2024/02/12 18:42:29;;;;;;;;;0.00;0.00;;;;;21.44;45.57;101187.88;6400306;22;45392;-76
2024/02/12 18:44:58;;;;;;;;;1.67;0.67;;;;;21.37;45.60;101187.72;6401054;22;45497;-75
2024/02/12 18:47:23;;;;;;;;;3.00;1.67;;;;;21.59;45.44;101215.34;6400610;22;46110;-74
2024/02/12 18:49:48;;;;;;;;;1.00;1.00;;;;;21.52;46.07;101201.91;6398656;22;45355;-89
2024/02/12 18:52:14;;;;;;;;;4.00;1.67;;;;;21.61;46.25;101216.00;6400252;22;45814;-86
2024/02/12 18:54:40;;;;;;;;;1.67;0.67;;;;;21.54;46.23;101214.19;6400190;22;45306;-77
2024/02/12 18:57:05;;;;;;;;;2.67;0.67;;;;;21.68;46.38;101234.66;6398374;22;45877;-84
2024/02/12 18:59:32;;;;;;;;;4.00;1.00;;;;;21.63;46.32;101231.69;6400232;22;45401;-85
2024/02/12 19:01:58;;;;;;;;;2.67;0.00;;;;;21.66;46.08;101233.19;6399605;22;45257;-84
2024/02/12 19:04:24;;;;;;;;;0.67;0.67;;;;;21.73;46.14;101247.41;6399385;22;45460;-85
2024/02/12 19:06:49;;;;;;;;;1.00;1.00;;;;;21.74;46.12;101244.59;6400340;22;45334;-83
2024/02/12 19:09:14;;;;;;;;;0.67;0.67;;;;;21.77;46.70;101240.78;6399571;22;54863;-88
2024/02/12 19:11:41;;;;;;;;;0.00;0.00;;;;;21.71;46.79;101238.78;6400433;22;45334;-86
2024/02/12 19:14:07;;;;;;;;;1.33;1.00;;;;;21.67;46.86;101230.38;6400262;22;45266;-81
2024/02/12 19:16:33;;;;;;;;;4.00;0.00;;;;;21.75;46.53;101240.13;6399549;22;46246;-80
2024/02/12 19:18:58;;;;;;;;;0.67;0.67;;;;;21.29;46.61;101173.50;6399429;22;45620;-86
2024/02/12 19:21:25;;;;;;;;;2.33;0.67;;;;;21.86;46.87;101254.81;6400569;22;45290;-80
2024/02/12 19:23:50;;;;;;;;;1.67;0.00;;;;;21.86;46.58;101252.16;6399296;22;45295;-80
2024/02/12 19:26:16;;;;;;;;;2.67;2.00;;;;;21.87;46.32;101266.25;6399253;22;46170;-80
2024/02/12 19:28:41;;;;;;;;;2.00;0.33;;;;;21.87;46.71;101263.59;6399972;22;45275;-80
2024/02/12 19:31:07;;;;;;;;;3.00;0.67;;;;;21.76;46.62;101240.94;6400433;22;45314;-80
2024/02/12 19:33:32;;;;;;;;;3.33;1.00;;;;;21.71;46.88;101236.97;6400026;22;45192;-81
2024/02/12 19:35:59;;;;;;;;;1.00;1.00;;;;;21.82;46.33;101264.09;6399998;22;45284;-81
2024/02/12 19:38:25;;;;;;;;;4.00;3.33;;;;;21.86;46.61;101268.06;6400447;22;45276;-80
2024/02/12 19:40:51;;;;;;;;;4.00;4.00;;;;;21.78;46.93;101260.97;6399893;22;45269;-78
2024/02/12 19:43:16;;;;;;;;;8.33;6.67;;;;;21.89;47.56;101277.53;6400545;22;45472;-80
2024/02/12 19:45:43;;;;;;;;;7.67;4.00;;;;;21.79;48.26;101272.38;6399824;22;45902;-82
2024/02/12 19:48:09;;;;;;;;;10.67;7.67;;;;;21.90;48.35;101280.03;6399940;22;45381;-79
2024/02/12 19:50:35;;;;;;;;;7.00;6.33;;;;;21.91;49.06;101292.25;6399811;22;45354;-79
2024/02/12 19:53:00;;;;;;;;;6.33;5.00;;;;;21.95;48.89;101285.66;6399922;22;45509;-77
2024/02/12 19:55:26;;;;;;;;;7.33;7.00;;;;;21.99;49.51;101291.41;6400266;22;46128;-79
2024/02/12 19:57:52;;;;;;;;;10.00;6.33;;;;;21.89;49.51;101273.06;6400221;22;45331;-78
2024/02/12 20:00:17;;;;;;;;;9.33;5.67;;;;;21.91;49.49;101284.31;6400024;22;45326;-79
2024/02/12 20:02:44;;;;;;;;;6.67;5.00;;;;;22.05;49.94;101292.56;6399886;22;45395;-79
2024/02/12 20:05:10;;;;;;;;;11.00;4.00;;;;;22.07;49.34;101295.88;6400219;22;45327;-79
2024/02/12 20:07:39;;;;;;;;;8.33;6.00;;;;;22.06;49.78;101291.59;6400366;22;45292;-78
2024/02/12 20:10:09;;;;;;;;;10.00;5.67;;;;;22.01;49.95;101291.25;6400293;22;45266;-80
2024/02/12 20:12:36;;;;;;;;;5.67;4.33;;;;;22.04;50.38;101296.22;6399841;22;45294;-80
2024/02/12 20:15:03;;;;;;;;;5.00;3.00;;;;;22.11;50.26;101312.25;6399583;22;47325;-80
2024/02/12 20:17:28;;;;;;;;;5.00;5.00;;;;;22.11;50.04;101310.44;6399228;22;45223;-80
2024/02/12 20:19:53;;;;;;;;;9.00;5.67;;;;;22.09;50.00;101309.81;6399725;22;45557;-80
2024/02/12 20:22:19;;;;;;;;;8.33;6.00;;;;;22.14;50.15;101325.19;6399952;22;45464;-79
2024/02/12 20:24:44;;;;;;;;;28.75;17.50;;;;;22.12;49.82;101327.19;6369991;22;47014;-79
2024/02/12 20:27:10;;;;;;;;;30.25;25.75;;;;;21.90;49.70;101292.44;6399034;22;45298;-80
2024/02/12 20:29:36;;;;;;;;;27.25;22.50;;;;;22.02;49.58;101324.69;6399699;22;45236;-81
2024/02/12 20:32:02;;;;;;;;;15.50;13.50;;;;;22.06;49.93;101339.28;6399327;22;45413;-82
2024/02/12 20:34:30;;;;;;;;;27.00;19.25;;;;;22.15;50.45;101348.84;6400214;22;45255;-82
2024/02/12 20:36:55;;;;;;;;;23.50;18.00;;;;;22.05;49.76;101337.63;6399492;22;45767;-82
2024/02/12 20:39:21;;;;;;;;;24.25;17.00;;;;;22.05;49.53;101335.78;6399950;22;45257;-83
2024/02/12 20:41:46;;;;;;;;;19.25;14.25;;;;;22.15;49.79;101356.81;6399827;22;45189;-82
2024/02/12 20:44:13;;;;;;;;;20.50;18.25;;;;;22.16;49.85;101362.94;6400205;22;45215;-81
2024/02/12 20:46:40;;;;;;;;;19.67;17.67;;;;;22.15;50.00;101363.94;6399505;22;45247;-77
2024/02/12 20:49:10;;;;;;;;;16.67;15.67;;;;;21.87;50.03;101330.69;6399581;22;45424;-79
2024/02/12 20:51:35;;;;;;;;;19.00;15.00;;;;;22.18;50.08;101372.38;6399250;22;45412;-79
2024/02/12 20:54:01;;;;;;;;;17.00;15.00;;;;;22.18;49.14;101372.38;6398772;22;47053;-80
2024/02/12 20:56:26;;;;;;;;;23.67;16.00;;;;;22.15;49.64;101372.72;6399640;22;45312;-82
2024/02/12 20:58:52;;;;;;;;;17.67;16.67;;;;;22.12;49.99;101373.03;6400063;22;45641;-79
2024/02/12 21:01:17;;;;;;;;;20.25;14.25;;;;;22.10;49.62;101366.25;6399334;22;45381;-81
2024/02/12 21:03:43;;;;;;;;;19.75;12.00;;;;;22.12;49.87;101372.22;6399467;22;46040;-77
2024/02/12 21:06:08;;;;;;;;;8.50;7.50;;;;;22.05;50.14;101369.41;6399747;22;45334;-77
2024/02/12 21:08:34;;;;;;;;;18.75;14.50;;;;;22.20;50.06;101387.28;6371653;22;45561;-80
2024/02/12 21:11:00;;;;;;;;;14.67;13.33;;;;;22.21;49.73;101388.94;6399534;22;45319;-78
2024/02/12 21:13:26;;;;;;;;;15.67;12.67;;;;;22.14;49.68;101381.66;6399321;22;47246;-80
2024/02/12 21:15:53;;;;;;;;;19.00;13.33;;;;;21.98;49.97;101353.38;6399067;22;45351;-79
2024/02/12 21:18:18;;;;;;;;;18.50;14.75;;;;;22.20;49.94;101382.78;6400023;22;45272;-78
2024/02/12 21:20:43;;;;;;;;;18.67;14.33;;;;;22.20;50.09;101385.44;6399880;22;45431;-79
2024/02/12 21:23:09;;;;;;;;;16.67;14.00;;;;;22.22;49.88;101390.59;6399088;22;63320;-76
2024/02/12 21:25:35;;;;;;;;;18.33;12.00;;;;;22.22;49.89;101385.31;6399373;22;45411;-74
2024/02/12 21:28:00;;;;;;;;;17.00;13.67;;;;;22.12;49.36;101375.69;6398993;22;45287;-76
2024/02/12 21:30:25;;;;;;;;;14.33;12.00;;;;;22.23;49.07;101393.06;6398719;22;45408;-75
2024/02/12 21:32:51;;;;;;;;;14.67;11.00;;;;;22.23;49.30;101389.59;6399763;22;45489;-74
2024/02/12 21:35:19;;;;;;;;;17.00;10.00;;;;;22.24;49.28;101402.69;6397777;22;65224;-72
2024/02/12 21:37:45;;;;;;;;;12.33;10.00;;;;;22.12;49.29;101383.63;6398347;22;45360;-77
2024/02/12 21:40:12;;;;;;;;;12.33;9.00;;;;;22.17;48.87;101397.22;6398802;22;45298;-76
2024/02/12 21:42:37;;;;;;;;;13.67;10.33;;;;;22.24;48.99;101409.81;6399089;22;45300;-77
2024/02/12 21:45:04;;;;;;;;;12.33;11.00;;;;;22.16;48.21;101395.56;6398963;22;45373;-77
2024/02/12 21:47:30;;;;;;;;;16.00;10.67;;;;;22.20;48.00;101404.00;6398995;22;45128;-75
2024/02/12 21:49:56;;;;;;;;;11.00;6.00;;;;;22.16;48.36;101406.19;6398331;22;45256;-76
2024/02/12 21:52:21;;;;;;;;;13.00;10.00;;;;;22.12;48.17;101402.19;6398457;22;45243;-78
2024/02/12 21:54:49;;;;;;;;;14.33;12.67;;;;;22.13;47.75;101405.66;6370815;22;45250;-75
2024/02/12 21:57:15;;;;;;;;;11.50;10.00;;;;;22.15;48.11;101416.94;6399102;22;45292;-76
2024/02/12 21:59:41;;;;;;;;;11.00;9.00;;;;;22.13;47.37;101418.94;6397784;22;45323;-76
2024/02/12 22:02:08;;;;;;;;;15.00;12.33;;;;;22.10;47.40;101421.91;6398880;22;47335;-76
2024/02/12 22:04:36;;;;;;;;;8.33;8.00;;;;;22.09;47.17;101422.91;6400024;22;45337;-74
2024/02/12 22:07:02;;;;;;;;;12.33;9.67;;;;;22.05;47.17;101422.41;6371706;22;45320;-76
2024/02/12 22:09:27;;;;;;;;;11.67;8.00;;;;;21.95;47.58;101419.94;6400786;22;45240;-75
2024/02/12 22:11:53;;;;;;;;;9.00;9.00;;;;;22.00;47.45;101430.84;6371801;22;46981;-76
2024/02/12 22:14:18;;;;;;;;;10.00;8.00;;;;;22.00;47.28;101433.50;6400046;22;45219;-76
2024/02/12 22:16:44;;;;;;;;;13.33;7.33;;;;;21.96;46.80;101433.00;6400861;22;45227;-75
2024/02/12 22:19:09;;;;;;;;;8.00;8.00;;;;;21.98;46.67;101442.63;6400849;22;45300;-77
2024/02/12 22:21:37;;;;;;;;;10.33;8.67;;;;;21.95;46.91;101447.25;6400730;22;45745;-73
2024/02/12 22:24:03;;;;;;;;;8.00;8.00;;;;;21.94;46.94;101447.41;6399931;22;45334;-76
2024/02/12 22:26:29;;;;;;;;;7.33;7.00;;;;;21.86;46.67;101434.94;6399884;22;45434;-76
2024/02/12 22:28:54;;;;;;;;;9.67;9.00;;;;;21.90;46.30;101446.91;6400455;22;45383;-77
2024/02/12 22:31:19;;;;;;;;;6.67;5.33;;;;;21.90;46.44;101454.88;6400616;22;45247;-75
2024/02/12 22:33:45;;;;;;;;;9.67;8.67;;;;;21.90;46.64;101452.22;6400075;22;58011;-75
2024/02/12 22:36:11;;;;;;;;;7.00;7.00;;;;;21.89;46.56;101453.19;6400590;22;45398;-76
2024/02/12 22:38:36;;;;;;;;;9.67;5.67;;;;;21.88;46.51;101461.31;6400346;22;45261;-73
2024/02/12 22:41:01;;;;;;;;;8.67;7.00;;;;;21.86;46.46;101458.78;6400149;22;46976;-77
2024/02/12 22:43:26;;;;;;;;;9.00;9.00;;;;;21.85;46.04;101463.28;6399950;22;45239;-76
2024/02/12 22:45:52;;;;;;;;;12.67;8.67;;;;;21.85;46.00;101467.75;6400360;22;45141;-76
2024/02/12 22:48:18;;;;;;;;;10.33;7.00;;;;;21.83;46.15;101465.25;6371961;22;45528;-77
2024/02/12 22:50:43;;;;;;;;;8.33;7.00;;;;;21.80;45.93;101467.41;6400620;22;46298;-75
2024/02/12 22:53:10;;;;;;;;;7.67;7.00;;;;;21.81;45.85;101485.78;6400666;22;45331;-74
2024/02/12 22:55:39;;;;;;;;;7.00;6.00;;;;;21.81;45.94;101483.13;6400508;22;45284;-75
2024/02/12 22:58:08;;;;;;;;;8.00;5.33;;;;;21.62;45.68;101461.25;6400259;22;45296;-75
2024/02/12 23:00:46;;;;;;;;;9.33;9.33;;;;;21.78;45.49;101486.09;6400801;22;45246;-75
2024/02/12 23:03:13;;;;;;;;;11.33;5.00;;;;;21.69;46.10;101472.03;6400076;22;45389;-75
2024/02/12 23:05:47;;;;;;;;;9.33;6.00;;;;;21.78;45.58;101490.59;6400828;22;45259;-76
2024/02/12 23:08:13;;;;;;;;;9.33;6.33;;;;;21.63;45.81;101465.56;6400211;22;45430;-76
2024/02/12 23:10:39;;;;;;;;;7.67;6.00;;;;;21.76;46.01;101485.44;6399429;22;46126;-75
2024/02/12 23:13:05;;;;;;;;;7.33;7.33;;;;;21.72;45.68;101487.59;6400648;22;45287;-76
2024/02/12 23:15:35;;;;;;;;;7.33;7.33;;;;;21.73;45.94;101493.69;6400205;22;45252;-75
2024/02/12 23:18:02;;;;;;;;;4.00;4.00;;;;;21.63;45.26;101480.59;6400151;22;45415;-76
2024/02/12 23:20:27;;;;;;;;;9.00;7.00;;;;;21.48;45.33;101461.88;6399881;22;47023;-75
2024/02/12 23:22:53;;;;;;;;;9.33;7.00;;;;;21.72;45.29;101513.25;6399823;22;45390;-76
2024/02/12 23:25:20;;;;;;;;;8.00;8.00;;;;;21.72;45.31;101507.94;6399957;22;45342;-75
2024/02/12 23:27:46;;;;;;;;;8.33;7.00;;;;;21.71;45.07;101504.47;6400302;22;45449;-75
2024/02/12 23:30:13;;;;;;;;;8.00;7.33;;;;;21.71;45.25;101512.41;6399889;22;46142;-76
2024/02/12 23:32:40;;;;;;;;;8.00;7.67;;;;;21.71;45.44;101514.22;6400100;22;45203;-76
2024/02/12 23:35:07;;;;;;;;;10.33;8.00;;;;;21.70;45.14;101517.88;6400110;22;45238;-75
2024/02/12 23:37:33;;;;;;;;;8.67;7.00;;;;;21.69;45.45;101519.69;6399945;22;45362;-76
2024/02/12 23:39:59;;;;;;;;;9.00;7.00;;;;;21.61;45.13;101507.25;6399646;22;45278;-75
2024/02/12 23:42:24;;;;;;;;;5.00;5.00;;;;;21.68;45.01;101520.69;6400304;22;45250;-76
2024/02/12 23:44:52;;;;;;;;;9.67;6.33;;;;;21.68;44.80;101517.19;6400143;22;45253;-75
2024/02/12 23:47:20;;;;;;;;;10.33;8.33;;;;;21.47;44.77;101495.47;6400147;22;45387;-76
2024/02/12 23:49:45;;;;;;;;;7.00;6.00;;;;;21.62;45.05;101516.03;6399548;22;46304;-76
2024/02/12 23:52:11;;;;;;;;;6.00;6.00;;;;;21.66;44.87;101519.19;6399960;22;45366;-75
2024/02/12 23:54:36;;;;;;;;;8.33;8.00;;;;;21.60;44.96;101515.34;6400233;22;45422;-75
2024/02/12 23:57:01;;;;;;;;;8.00;6.33;;;;;21.60;44.94;101510.06;6399713;22;56675;-76
2024/02/12 23:59:28;;;;;;;;;9.00;7.67;;;;;21.60;44.65;101516.19;6400257;22;46246;-76
